Time;durP1;ratioP1;P1;durP2;ratioP2;P2;SDS_P1;SDS_P2;PMS_P1;PMS_P2;Temp;Humidity;BMP_temperature;BMP_pressure;BME280_temperature;BME280_humidity;BME280_pressure;Samples;Min_cycle;Max_cycle;Signal;HPM_P1;HPM_P2
2021/10/03 00:00:19;;;;;;;44.58;25.68;;;;;;;7.77;73.41;101051.73;1735308;81;20930;-72
2021/10/03 00:02:49;;;;;;;35.85;26.35;;;;;;;7.71;73.56;101061.08;1758410;81;21061;-72
2021/10/03 00:05:16;;;;;;;42.08;27.48;;;;;;;7.61;73.67;101061.95;1782142;80;21020;-70
2021/10/03 00:07:48;;;;;;;36.33;26.30;;;;;;;7.52;74.10;101067.14;1783173;80;21055;-71
2021/10/03 00:10:20;;;;;;;38.48;23.65;;;;;;;7.40;74.59;101069.52;1779479;80;21085;-69
2021/10/03 00:12:47;;;;;;;40.65;26.12;;;;;;;7.29;75.04;101072.22;1751443;81;20965;-72
2021/10/03 00:15:13;;;;;;;38.63;27.27;;;;;;;7.19;75.68;101077.62;1778477;80;20977;-71
2021/10/03 00:17:40;;;;;;;37.08;25.85;;;;;;;7.11;76.14;101074.55;1759731;80;21034;-71
2021/10/03 00:20:08;;;;;;;34.48;24.00;;;;;;;7.01;76.34;101076.22;1789832;80;21287;-69
2021/10/03 00:22:35;;;;;;;37.10;24.00;;;;;;;6.96;76.59;101073.29;1763137;80;20975;-72
2021/10/03 00:25:01;;;;;;;49.13;25.48;;;;;;;6.93;76.75;101076.88;1762914;80;20925;-71
2021/10/03 00:27:27;;;;;;;39.33;25.05;;;;;;;6.89;76.98;101075.09;1782594;80;21091;-75
2021/10/03 00:29:54;;;;;;;38.92;27.55;;;;;;;6.97;77.05;101075.45;1783903;80;21075;-70
2021/10/03 00:32:20;;;;;;;34.55;22.52;;;;;;;7.02;76.91;101074.37;1782507;80;22595;-70
2021/10/03 00:34:47;;;;;;;34.53;23.50;;;;;;;7.05;76.92;101072.64;1757836;80;20952;-71
2021/10/03 00:37:14;;;;;;;32.20;23.75;;;;;;;7.11;76.87;101073.72;1781202;80;21024;-73
2021/10/03 00:39:40;;;;;;;29.45;21.85;;;;;;;7.16;76.65;101076.64;1789631;80;21493;-74
2021/10/03 00:42:06;;;;;;;35.43;21.97;;;;;;;7.16;76.56;101069.45;1789948;80;21547;-69
2021/10/03 00:44:33;;;;;;;38.15;22.42;;;;;;;7.20;76.41;101065.87;1762766;80;21196;-69
2021/10/03 00:46:59;;;;;;;35.15;21.07;;;;;;;7.19;76.32;101064.23;1789803;80;21065;-70
2021/10/03 00:49:26;;;;;;;44.83;25.95;;;;;;;7.18;76.26;101074.11;1789631;80;21508;-70
2021/10/03 00:51:53;;;;;;;29.07;20.52;;;;;;;7.19;76.17;101075.77;1790085;80;21480;-70
2021/10/03 00:54:19;;;;;;;35.48;18.65;;;;;;;7.17;76.12;101077.80;1763169;80;21000;-71
2021/10/03 00:56:45;;;;;;;24.82;17.23;;;;;;;7.16;76.13;101073.47;1790176;80;21066;-71
2021/10/03 00:59:12;;;;;;;37.05;20.40;;;;;;;7.12;76.21;101067.36;1771753;80;21723;-71
2021/10/03 01:01:38;;;;;;;35.50;20.75;;;;;;;7.06;76.29;101074.81;1788023;80;20996;-70
2021/10/03 01:04:04;;;;;;;32.80;20.27;;;;;;;7.05;76.43;101065.95;1748006;81;21059;-70
2021/10/03 01:06:31;;;;;;;34.75;21.55;;;;;;;7.07;76.48;101067.94;1758007;81;20988;-71
2021/10/03 01:08:58;;;;;;;28.60;21.33;;;;;;;7.06;76.49;101066.27;1741113;80;21934;-74
2021/10/03 01:11:24;;;;;;;34.38;21.37;;;;;;;7.05;76.49;101067.83;1775218;80;21118;-72
2021/10/03 01:13:51;;;;;;;28.50;18.07;;;;;;;7.05;76.43;101064.61;1757606;80;21519;-71
2021/10/03 01:16:18;;;;;;;24.98;17.90;;;;;;;7.05;76.38;101063.81;1786522;80;20937;-70
2021/10/03 01:18:44;;;;;;;26.95;19.30;;;;;;;6.98;76.49;101062.41;1782564;80;20989;-72
2021/10/03 01:21:11;;;;;;;29.82;18.70;;;;;;;6.93;76.59;101060.82;1772855;80;21481;-71
2021/10/03 01:23:37;;;;;;;28.90;20.70;;;;;;;6.89;76.70;101068.41;1784829;80;21028;-73
2021/10/03 01:26:04;;;;;;;26.37;18.27;;;;;;;6.83;76.82;101062.48;1786430;80;21055;-72
2021/10/03 01:28:30;;;;;;;37.78;20.15;;;;;;;6.84;76.92;101069.49;1757518;80;21087;-72
2021/10/03 01:30:57;;;;;;;28.25;18.42;;;;;;;6.87;76.93;101069.61;1786406;80;21550;-71
2021/10/03 01:33:25;;;;;;;29.25;18.57;;;;;;;6.92;76.92;101068.02;1757801;80;21071;-70
2021/10/03 01:35:51;;;;;;;36.23;20.57;;;;;;;6.92;76.85;101064.51;1786607;80;21473;-71
2021/10/03 01:38:18;;;;;;;26.17;20.43;;;;;;;6.92;76.86;101061.33;1786348;80;21519;-70
2021/10/03 01:40:47;;;;;;;22.00;17.60;;;;;;;6.97;76.78;101062.09;1784784;80;21028;-70
2021/10/03 01:43:13;;;;;;;22.07;16.82;;;;;;;6.97;76.57;101061.58;1757758;80;21477;-72
2021/10/03 01:45:41;;;;;;;28.15;19.55;;;;;;;6.87;76.65;101071.77;1757371;80;21079;-71
2021/10/03 01:48:18;;;;;;;24.30;18.55;;;;;;;6.78;76.79;101058.72;1786333;80;21007;-71
2021/10/03 01:50:50;;;;;;;25.92;17.40;;;;;;;6.76;76.89;101064.25;1786550;80;21482;-71
2021/10/03 01:53:22;;;;;;;23.80;17.85;;;;;;;6.70;77.19;101065.05;1784338;80;21075;-71
2021/10/03 01:55:49;;;;;;;23.95;16.75;;;;;;;6.62;77.64;101062.47;1786557;80;21482;-73
2021/10/03 01:58:17;;;;;;;34.10;18.67;;;;;;;6.60;77.66;101063.69;1786181;80;20996;-72
2021/10/03 02:00:46;;;;;;;27.82;21.05;;;;;;;6.56;77.87;101067.27;1772210;80;20983;-72
2021/10/03 02:03:12;;;;;;;25.82;18.50;;;;;;;6.53;77.93;101068.96;1779448;80;21049;-71
2021/10/03 02:05:42;;;;;;;28.23;20.70;;;;;;;6.47;78.17;101066.56;1757898;80;20981;-72
2021/10/03 02:08:10;;;;;;;35.10;20.25;;;;;;;6.40;78.36;101064.81;1786464;80;22173;-71
2021/10/03 02:10:38;;;;;;;25.50;16.80;;;;;;;6.37;78.73;101066.54;1787988;80;21157;-72
2021/10/03 02:13:06;;;;;;;24.40;17.52;;;;;;;6.30;79.30;101066.96;1736179;80;20932;-72
2021/10/03 02:15:33;;;;;;;26.75;19.27;;;;;;;6.25;79.64;101069.36;1779077;80;21290;-70
2021/10/03 02:18:03;;;;;;;27.22;16.90;;;;;;;6.22;79.85;101069.25;1756064;81;20982;-69
2021/10/03 02:20:30;;;;;;;28.67;21.05;;;;;;;6.18;79.98;101068.48;1745455;81;21065;-69
2021/10/03 02:22:59;;;;;;;22.67;17.45;;;;;;;6.17;80.14;101069.48;1760913;81;21327;-70
2021/10/03 02:25:25;;;;;;;27.75;18.40;;;;;;;6.14;80.15;101068.83;1753221;80;21469;-70
2021/10/03 02:27:52;;;;;;;29.63;18.57;;;;;;;6.11;80.25;101074.55;1755546;81;21500;-70
2021/10/03 02:30:18;;;;;;;27.82;18.50;;;;;;;6.09;80.35;101075.23;1732858;81;21051;-70
2021/10/03 02:32:44;;;;;;;24.12;17.00;;;;;;;6.10;80.36;101074.73;1732740;81;20908;-70
2021/10/03 02:35:11;;;;;;;22.30;16.05;;;;;;;6.09;80.47;101071.77;1788814;80;21208;-70
2021/10/03 02:37:40;;;;;;;27.27;19.05;;;;;;;6.07;80.64;101087.14;1789482;80;21514;-70
2021/10/03 02:40:09;;;;;;;25.97;18.50;;;;;;;6.04;80.76;101082.98;1790035;80;20999;-71
2021/10/03 02:42:36;;;;;;;21.55;15.28;;;;;;;6.05;80.68;101079.80;1778354;79;22151;-70
2021/10/03 02:45:05;;;;;;;28.38;17.92;;;;;;;6.06;80.67;101068.95;1785779;80;21557;-72
2021/10/03 02:47:32;;;;;;;23.47;17.40;;;;;;;6.01;80.69;101078.02;1762213;80;21893;-72
2021/10/03 02:49:59;;;;;;;27.87;16.45;;;;;;;6.01;80.71;101077.19;1747310;81;21503;-72
2021/10/03 02:52:25;;;;;;;20.77;16.27;;;;;;;5.99;80.75;101084.08;1761208;81;20923;-69
2021/10/03 02:54:51;;;;;;;20.68;15.80;;;;;;;6.03;80.91;101086.69;1758600;80;21027;-69
2021/10/03 02:57:18;;;;;;;21.87;16.07;;;;;;;6.06;80.82;101081.47;1778524;80;21110;-71
2021/10/03 02:59:45;;;;;;;21.50;15.80;;;;;;;6.03;80.68;101073.84;1750052;81;21171;-70
2021/10/03 03:02:11;;;;;;;24.50;18.45;;;;;;;5.98;80.68;101076.24;1749067;80;20980;-71
2021/10/03 03:04:38;;;;;;;23.45;15.65;;;;;;;5.97;80.79;101086.09;1789763;80;21008;-71
2021/10/03 03:07:04;;;;;;;21.70;15.85;;;;;;;5.96;80.83;101081.75;1789770;80;20936;-70
2021/10/03 03:09:31;;;;;;;23.02;13.48;;;;;;;5.97;80.77;101078.08;1773582;80;21054;-71
2021/10/03 03:11:57;;;;;;;20.15;14.68;;;;;;;6.00;80.72;101079.03;1783074;80;21148;-71
2021/10/03 03:14:24;;;;;;;20.12;15.68;;;;;;;6.02;80.78;101077.52;1786452;80;20956;-72
2021/10/03 03:16:52;;;;;;;26.07;16.25;;;;;;;6.02;80.65;101074.34;1729367;81;21046;-71
2021/10/03 03:19:18;;;;;;;22.13;15.10;;;;;;;6.01;80.62;101068.67;1778505;80;21004;-70
2021/10/03 03:21:45;;;;;;;22.82;15.30;;;;;;;5.99;80.56;101079.23;1756981;80;21065;-70
2021/10/03 03:24:11;;;;;;;22.10;16.57;;;;;;;5.96;80.56;101076.41;1757987;80;21122;-71
2021/10/03 03:26:38;;;;;;;20.02;15.90;;;;;;;5.96;80.59;101076.92;1786768;80;20984;-70
2021/10/03 03:29:04;;;;;;;24.15;15.90;;;;;;;5.93;80.60;101077.30;1757834;80;20971;-71
2021/10/03 03:31:31;;;;;;;18.15;14.20;;;;;;;5.90;80.65;101077.15;1786259;80;21056;-71
2021/10/03 03:33:58;;;;;;;25.37;15.65;;;;;;;5.89;80.71;101078.19;1757550;80;21564;-71
2021/10/03 03:36:24;;;;;;;18.23;13.72;;;;;;;5.88;80.90;101079.70;1755368;80;21056;-71
2021/10/03 03:38:52;;;;;;;21.20;15.32;;;;;;;5.87;81.02;101069.52;1786251;80;20944;-71
2021/10/03 03:41:19;;;;;;;22.20;16.12;;;;;;;5.88;81.06;101069.84;1756476;80;20979;-71
2021/10/03 03:43:45;;;;;;;24.67;16.85;;;;;;;5.90;81.06;101082.48;1779592;80;21075;-70
2021/10/03 03:46:12;;;;;;;28.32;19.07;;;;;;;5.87;81.02;101077.53;1786416;79;21054;-70
2021/10/03 03:48:38;;;;;;;25.30;20.12;;;;;;;5.84;81.08;101079.22;1757742;80;21417;-71
2021/10/03 03:51:04;;;;;;;32.65;21.50;;;;;;;5.83;81.10;101081.56;1786383;80;20975;-71
2021/10/03 03:53:33;;;;;;;25.82;20.10;;;;;;;5.81;81.11;101087.58;1743969;81;20938;-71
2021/10/03 03:56:00;;;;;;;32.58;20.68;;;;;;;5.81;81.23;101089.41;1760408;80;20953;-71
2021/10/03 03:58:27;;;;;;;36.08;23.12;;;;;;;5.80;81.24;101084.61;1746232;80;21590;-70
2021/10/03 04:00:54;;;;;;;26.35;19.00;;;;;;;5.82;81.24;101081.23;1773975;80;22263;-70
2021/10/03 04:03:20;;;;;;;25.60;18.87;;;;;;;5.80;81.20;101080.60;1738044;81;20932;-70
2021/10/03 04:05:46;;;;;;;23.38;15.72;;;;;;;5.76;81.24;101082.46;1757442;81;21048;-70
2021/10/03 04:08:13;;;;;;;33.10;17.95;;;;;;;5.70;81.24;101083.55;1738376;80;20953;-71
2021/10/03 04:10:39;;;;;;;19.05;14.25;;;;;;;5.64;81.39;101090.95;1786437;80;21592;-71
2021/10/03 04:13:06;;;;;;;26.60;16.62;;;;;;;5.62;81.51;101093.45;1746527;81;21287;-71
2021/10/03 04:15:33;;;;;;;26.25;16.67;;;;;;;5.58;81.52;101095.67;1760499;80;21635;-70
2021/10/03 04:18:01;;;;;;;24.30;17.25;;;;;;;5.62;81.74;101095.63;1765092;80;21563;-70
2021/10/03 04:20:27;;;;;;;26.02;16.27;;;;;;;5.65;81.58;101093.95;1786339;80;21035;-70
2021/10/03 04:22:53;;;;;;;20.95;14.75;;;;;;;5.71;81.68;101091.02;1779909;80;20989;-71
2021/10/03 04:25:23;;;;;;;24.63;16.77;;;;;;;5.76;81.54;101096.64;1744061;80;20932;-72
2021/10/03 04:27:50;;;;;;;17.25;14.10;;;;;;;5.73;81.37;101098.35;1785900;80;20936;-71
2021/10/03 04:30:16;;;;;;;22.87;14.40;;;;;;;5.70;81.39;101109.41;1755181;80;20987;-70
2021/10/03 04:32:42;;;;;;;20.55;13.18;;;;;;;5.64;81.50;101112.30;1784822;80;21028;-71
2021/10/03 04:35:10;;;;;;;25.32;15.78;;;;;;;5.65;81.69;101115.30;1760828;80;21598;-70
2021/10/03 04:37:36;;;;;;;27.13;14.73;;;;;;;5.61;81.53;101121.98;1763991;81;21509;-71
2021/10/03 04:40:06;;;;;;;24.67;14.55;;;;;;;5.61;81.63;101116.65;1785923;80;21429;-72
2021/10/03 04:42:33;;;;;;;28.40;15.48;;;;;;;5.58;81.68;101118.36;1757732;80;20957;-70
2021/10/03 04:44:59;;;;;;;22.32;13.88;;;;;;;5.56;81.85;101122.23;1757516;80;21008;-71
2021/10/03 04:47:25;;;;;;;25.17;15.38;;;;;;;5.65;82.06;101119.80;1786673;80;21023;-70
2021/10/03 04:49:54;;;;;;;19.48;14.90;;;;;;;5.70;81.81;101121.42;1786542;80;21234;-72
2021/10/03 04:52:22;;;;;;;26.48;14.85;;;;;;;5.69;81.85;101121.09;1786056;80;21070;-72
2021/10/03 04:54:48;;;;;;;18.82;13.80;;;;;;;5.66;81.90;101116.93;1758011;80;20975;-72
2021/10/03 04:57:14;;;;;;;23.95;12.75;;;;;;;5.67;82.02;101117.27;1757872;80;20991;-73
2021/10/03 04:59:40;;;;;;;23.30;12.98;;;;;;;5.71;82.19;101124.39;1757463;80;21063;-69
2021/10/03 05:02:07;;;;;;;22.05;13.32;;;;;;;5.75;82.17;101116.86;1748141;81;21068;-69
2021/10/03 05:04:33;;;;;;;18.52;12.88;;;;;;;5.81;82.13;101122.28;1740050;81;21027;-70
2021/10/03 05:07:00;;;;;;;24.60;16.02;;;;;;;5.85;81.95;101122.23;1755485;81;20948;-70
2021/10/03 05:09:26;;;;;;;19.92;15.18;;;;;;;5.89;81.85;101130.76;1781735;80;21003;-70
2021/10/03 05:11:54;;;;;;;16.12;13.00;;;;;;;5.92;81.77;101127.20;1794829;79;20960;-70
2021/10/03 05:14:22;;;;;;;19.42;16.12;;;;;;;5.94;81.65;101126.53;1765314;81;21182;-70
2021/10/03 05:16:48;;;;;;;22.75;14.33;;;;;;;5.95;81.58;101129.50;1771239;79;21019;-70
2021/10/03 05:19:16;;;;;;;18.27;13.58;;;;;;;5.98;81.82;101125.64;1774315;79;20979;-72
2021/10/03 05:21:42;;;;;;;25.62;15.75;;;;;;;6.00;81.71;101127.61;1798264;79;21050;-69
2021/10/03 05:24:09;;;;;;;22.27;14.58;;;;;;;6.02;81.72;101126.92;1798236;79;21012;-70
2021/10/03 05:26:35;;;;;;;22.45;14.90;;;;;;;6.05;81.60;101123.38;1760782;81;22888;-70
2021/10/03 05:29:02;;;;;;;33.00;19.60;;;;;;;6.08;81.63;101123.52;1770803;79;20996;-72
2021/10/03 05:31:30;;;;;;;23.77;15.20;;;;;;;6.11;81.60;101119.97;1739971;81;20973;-72
2021/10/03 05:33:57;;;;;;;31.60;15.98;;;;;;;6.16;81.55;101122.08;1782994;80;21503;-72
2021/10/03 05:36:24;;;;;;;21.30;15.70;;;;;;;6.21;81.40;101118.34;1758130;80;20991;-72
2021/10/03 05:38:51;;;;;;;23.77;14.65;;;;;;;6.26;81.26;101118.61;1781634;80;21137;-72
2021/10/03 05:41:17;;;;;;;24.95;14.10;;;;;;;6.31;81.15;101114.87;1748753;81;21145;-72
2021/10/03 05:43:44;;;;;;;17.60;12.82;;;;;;;6.39;81.07;101123.28;1760988;81;20998;-71
2021/10/03 05:46:11;;;;;;;17.77;13.95;;;;;;;6.45;80.79;101124.70;1744138;81;21015;-71
2021/10/03 05:48:37;;;;;;;20.02;13.85;;;;;;;6.48;80.61;101129.66;1789192;80;21087;-70
2021/10/03 05:51:03;;;;;;;21.12;14.50;;;;;;;6.55;80.42;101125.23;1754500;80;21044;-70
2021/10/03 05:53:29;;;;;;;24.60;13.18;;;;;;;6.61;80.15;101122.33;1753598;81;21002;-70
2021/10/03 05:55:56;;;;;;;15.50;13.22;;;;;;;6.66;79.96;101121.25;1740259;81;20938;-71
2021/10/03 05:58:22;;;;;;;18.30;11.70;;;;;;;6.71;79.71;101127.36;1770356;80;20980;-72
2021/10/03 06:00:50;;;;;;;20.70;13.48;;;;;;;6.76;79.60;101120.94;1738405;80;20918;-75
2021/10/03 06:03:16;;;;;;;17.60;9.80;;;;;;;6.83;79.50;101124.50;1765147;81;21279;-71
2021/10/03 06:05:43;;;;;;;16.40;11.20;;;;;;;6.93;79.12;101127.18;1789260;79;21017;-70
2021/10/03 06:08:10;;;;;;;15.23;10.55;;;;;;;7.02;78.89;101125.20;1792687;79;21571;-70
2021/10/03 06:10:37;;;;;;;29.60;23.07;;;;;;;7.08;78.47;101132.98;1741361;80;21049;-71
2021/10/03 06:13:05;;;;;;;19.98;15.23;;;;;;;7.09;78.30;101128.78;1773527;81;21062;-73
2021/10/03 06:15:34;;;;;;;19.90;11.88;;;;;;;7.10;78.08;101130.95;1782901;80;21203;-71
2021/10/03 06:18:00;;;;;;;17.73;12.70;;;;;;;7.14;78.08;101130.88;1757938;80;20999;-70
2021/10/03 06:20:27;;;;;;;20.95;12.75;;;;;;;7.21;78.11;101132.58;1786381;80;20888;-71
2021/10/03 06:22:55;;;;;;;17.52;11.57;;;;;;;7.31;78.02;101140.28;1784374;80;21493;-70
2021/10/03 06:25:21;;;;;;;15.25;13.15;;;;;;;7.40;77.70;101132.42;1746638;80;21629;-72
2021/10/03 06:27:47;;;;;;;19.05;13.65;;;;;;;7.47;77.40;101131.16;1757853;80;21189;-69
2021/10/03 06:30:13;;;;;;;18.32;13.62;;;;;;;7.56;77.14;101135.34;1774584;80;21043;-71
2021/10/03 06:32:40;;;;;;;16.95;12.63;;;;;;;7.61;76.83;101137.75;1781227;80;21601;-69
2021/10/03 06:35:08;;;;;;;20.68;13.93;;;;;;;7.69;76.61;101138.94;1782362;80;21536;-70
2021/10/03 06:37:34;;;;;;;18.57;13.60;;;;;;;7.76;76.26;101136.31;1786451;80;21571;-70
2021/10/03 06:40:01;;;;;;;21.00;15.28;;;;;;;7.83;76.03;101136.66;1786465;80;21908;-70
2021/10/03 06:42:28;;;;;;;16.77;12.90;;;;;;;7.92;75.88;101139.17;1756122;80;20972;-70
2021/10/03 06:44:55;;;;;;;26.87;14.45;;;;;;;7.99;75.60;101132.84;1786534;80;20988;-71
2021/10/03 06:47:22;;;;;;;18.70;11.80;;;;;;;8.07;75.37;101129.16;1750284;81;21050;-70
2021/10/03 06:49:48;;;;;;;16.50;11.40;;;;;;;8.16;75.05;101127.97;1770482;80;21085;-68
2021/10/03 06:52:15;;;;;;;24.70;14.43;;;;;;;8.28;74.64;101133.09;1754966;80;21281;-69
2021/10/03 06:54:41;;;;;;;23.47;13.88;;;;;;;8.41;74.18;101131.00;1727002;81;21028;-72
2021/10/03 06:57:08;;;;;;;19.50;14.40;;;;;;;8.53;73.82;101125.39;1776622;80;20956;-72
2021/10/03 06:59:34;;;;;;;17.70;12.98;;;;;;;8.65;73.31;101123.25;1786272;80;21481;-70
2021/10/03 07:02:04;;;;;;;20.30;14.90;;;;;;;8.73;72.86;101127.08;1754268;79;21539;-70
2021/10/03 07:04:32;;;;;;;27.77;17.82;;;;;;;8.81;72.79;101129.28;1766293;79;20980;-71
2021/10/03 07:06:59;;;;;;;21.37;14.93;;;;;;;8.91;72.59;101128.37;1780725;80;20920;-70
2021/10/03 07:09:26;;;;;;;20.95;15.10;;;;;;;8.99;72.39;101120.95;1786444;80;20928;-72
2021/10/03 07:11:54;;;;;;;20.65;14.70;;;;;;;9.05;71.96;101123.34;1743679;81;20927;-72
2021/10/03 07:14:22;;;;;;;26.57;17.92;;;;;;;9.10;71.50;101123.55;1760600;81;21014;-70
2021/10/03 07:16:50;;;;;;;23.62;14.63;;;;;;;9.15;71.35;101120.57;1760549;80;20930;-72
2021/10/03 07:19:16;;;;;;;36.17;17.85;;;;;;;9.24;71.19;101126.56;1732082;81;21007;-73
2021/10/03 07:21:42;;;;;;;18.05;12.88;;;;;;;9.32;70.97;101129.03;1729541;81;21039;-70
2021/10/03 07:24:09;;;;;;;25.05;14.10;;;;;;;9.40;70.53;101130.70;1764890;80;21709;-71
2021/10/03 07:26:35;;;;;;;16.67;12.75;;;;;;;9.47;70.23;101121.59;1786472;80;21160;-71
2021/10/03 07:29:03;;;;;;;17.40;12.90;;;;;;;9.57;70.14;101127.38;1757815;80;21101;-72
2021/10/03 07:31:30;;;;;;;16.50;12.20;;;;;;;9.67;69.50;101132.33;1786348;80;20986;-73
2021/10/03 07:33:57;;;;;;;19.50;12.58;;;;;;;9.77;69.24;101129.22;1785228;80;20985;-74
2021/10/03 07:36:23;;;;;;;21.45;12.07;;;;;;;9.85;68.83;101128.98;1781149;80;20991;-72
2021/10/03 07:38:50;;;;;;;15.95;12.40;;;;;;;9.94;68.47;101133.92;1780385;80;21005;-73
2021/10/03 07:41:17;;;;;;;17.57;13.83;;;;;;;10.04;68.07;101132.14;1786278;80;21446;-72
2021/10/03 07:43:44;;;;;;;18.35;13.25;;;;;;;10.14;67.70;101129.02;1786000;80;20940;-73
2021/10/03 07:46:11;;;;;;;14.33;11.03;;;;;;;10.25;67.24;101131.08;1726255;81;21001;-73
2021/10/03 07:48:37;;;;;;;14.47;12.35;;;;;;;10.35;66.02;101124.23;1773091;80;21550;-73
2021/10/03 07:51:03;;;;;;;16.48;11.88;;;;;;;10.46;65.13;101126.23;1758079;80;21040;-71
2021/10/03 07:53:30;;;;;;;13.00;10.65;;;;;;;10.57;64.79;101124.73;1747273;81;21052;-73
2021/10/03 07:55:57;;;;;;;17.98;12.70;;;;;;;10.69;64.42;101127.58;1772142;80;21003;-74
2021/10/03 07:58:24;;;;;;;18.82;12.13;;;;;;;10.80;64.21;101122.84;1769561;80;20886;-74
2021/10/03 08:00:50;;;;;;;15.28;11.28;;;;;;;10.90;63.98;101125.37;1745315;81;21001;-73
2021/10/03 08:03:16;;;;;;;32.45;23.05;;;;;;;11.00;63.90;101128.93;1735858;80;21066;-74
2021/10/03 08:05:44;;;;;;;14.63;12.70;;;;;;;11.08;63.71;101124.63;1786786;80;21609;-72
2021/10/03 08:08:11;;;;;;;17.80;11.60;;;;;;;11.19;63.32;101127.14;1783069;80;21022;-73
2021/10/03 08:10:38;;;;;;;16.02;9.90;;;;;;;11.31;62.91;101120.02;1756704;80;21072;-76
2021/10/03 08:13:05;;;;;;;16.75;10.93;;;;;;;11.42;62.57;101116.59;1762104;80;21003;-78
2021/10/03 08:15:31;;;;;;;13.68;10.58;;;;;;;11.55;61.84;101119.19;1777978;79;20999;-75
2021/10/03 08:17:58;;;;;;;12.80;9.90;;;;;;;11.67;61.61;101113.88;1790134;80;21983;-74
2021/10/03 08:20:24;;;;;;;11.43;8.95;;;;;;;11.79;61.12;101114.84;1784868;80;21055;-73
2021/10/03 08:22:52;;;;;;;9.80;8.80;;;;;;;11.94;60.52;101113.14;1789943;80;21734;-73
2021/10/03 08:25:18;;;;;;;10.72;9.60;;;;;;;12.09;58.69;101113.05;1772520;80;21088;-74
2021/10/03 08:27:45;;;;;;;16.00;9.25;;;;;;;12.27;58.15;101113.58;1765577;80;21543;-77
2021/10/03 08:30:11;;;;;;;15.93;9.65;;;;;;;12.40;58.10;101113.41;1774292;80;21216;-72
2021/10/03 08:32:38;;;;;;;12.18;8.73;;;;;;;12.50;57.27;101119.09;1770321;80;21514;-75
2021/10/03 08:35:06;;;;;;;11.63;8.90;;;;;;;12.62;56.76;101120.48;1779649;79;21067;-74
2021/10/03 08:37:33;;;;;;;11.03;8.30;;;;;;;12.74;56.09;101122.72;1763488;80;21520;-71
2021/10/03 08:40:00;;;;;;;11.53;8.40;;;;;;;12.86;56.05;101116.00;1767189;80;21006;-72
2021/10/03 08:42:28;;;;;;;11.60;7.87;;;;;;;12.96;54.07;101121.14;1731751;81;21114;-75
2021/10/03 08:44:55;;;;;;;12.58;7.92;;;;;;;13.07;53.81;101114.95;1756199;81;20954;-74
2021/10/03 08:47:24;;;;;;;7.62;6.47;;;;;;;13.23;53.61;101110.80;1779476;80;21039;-74
2021/10/03 08:49:54;;;;;;;10.23;6.78;;;;;;;13.39;52.13;101120.91;1735677;80;21031;-71
2021/10/03 08:52:26;;;;;;;13.43;7.95;;;;;;;13.52;51.92;101118.53;1761854;80;20940;-74
2021/10/03 08:54:53;;;;;;;10.80;7.30;;;;;;;13.62;51.72;101120.09;1738357;80;21112;-74
2021/10/03 08:57:19;;;;;;;10.05;6.85;;;;;;;13.74;51.00;101112.00;1789912;79;20951;-73
2021/10/03 09:00:11;;;;;;;12.63;7.00;;;;;;;13.86;50.38;101114.18;1772152;80;21535;-73
2021/10/03 09:03:07;;;;;;;10.13;6.47;;;;;;;13.97;50.14;101119.56;1729902;81;21086;-73
2021/10/03 09:05:37;;;;;;;9.08;6.65;;;;;;;14.11;48.68;101113.89;1787244;80;21480;-73
2021/10/03 09:08:17;;;;;;;9.03;6.90;;;;;;;14.24;47.74;101117.18;1762630;80;21070;-73
2021/10/03 09:10:57;;;;;;;8.65;6.40;;;;;;;14.35;47.31;101116.83;1771268;80;21043;-73
2021/10/03 09:13:32;;;;;;;9.10;6.03;;;;;;;14.44;46.50;101118.13;1767384;80;21656;-75
2021/10/03 09:16:29;;;;;;;7.47;6.05;;;;;;;14.56;46.40;101123.52;1768926;80;20974;-75
2021/10/03 09:18:59;;;;;;;7.50;5.87;;;;;;;14.66;46.05;101110.17;1780854;80;21086;-73
2021/10/03 09:21:36;;;;;;;9.20;6.60;;;;;;;14.80;44.93;101118.30;1751469;80;21092;-72
2021/10/03 09:24:10;;;;;;;7.92;5.42;;;;;;;14.89;44.24;101118.72;1743129;80;21022;-68
2021/10/03 09:26:38;;;;;;;6.12;3.92;;;;;;;14.98;43.88;101114.55;1771259;80;20908;-70
2021/10/03 09:29:27;;;;;;;7.20;5.15;;;;;;;15.09;43.78;101110.43;1743619;80;20927;-71
2021/10/03 09:32:16;;;;;;;4.85;4.10;;;;;;;15.18;42.38;101113.02;1755573;80;21504;-75
2021/10/03 09:34:51;;;;;;;6.97;4.75;;;;;;;15.27;41.46;101116.14;1755471;81;22160;-69
2021/10/03 09:37:26;;;;;;;6.75;4.22;;;;;;;15.35;40.65;101115.72;1755035;81;21011;-72
2021/10/03 09:40:17;;;;;;;4.83;4.17;;;;;;;15.43;41.62;101114.52;1777088;80;21035;-73
2021/10/03 09:42:40;;;;;;;5.70;4.45;;;;;;;15.51;40.97;101113.59;1775606;80;21022;-74
2021/10/03 09:45:15;;;;;;;4.75;4.20;;;;;;;15.58;41.20;101113.43;1750510;80;21442;-74
2021/10/03 09:47:44;;;;;;;5.62;4.28;;;;;;;15.63;41.38;101106.16;1753830;81;21124;-72
2021/10/03 09:50:14;;;;;;;7.58;4.58;;;;;;;15.73;41.28;101107.41;1772660;80;21026;-72
2021/10/03 09:52:41;;;;;;;5.37;4.40;;;;;;;15.81;41.05;101101.02;1771214;80;21011;-76
2021/10/03 09:55:13;;;;;;;5.47;4.30;;;;;;;15.87;41.20;101100.03;1771465;80;21031;-72
2021/10/03 09:57:42;;;;;;;4.45;4.05;;;;;;;15.93;40.86;101095.47;1768099;80;20963;-74
2021/10/03 10:00:10;;;;;;;5.33;3.83;;;;;;;15.99;41.01;101097.19;1779920;80;21112;-74
2021/10/03 10:02:37;;;;;;;6.28;4.42;;;;;;;16.01;40.36;101086.38;1796008;76;22969;-73
2021/10/03 10:05:05;;;;;;;8.40;5.17;;;;;;;16.08;40.30;101095.67;1819219;77;21019;-74
2021/10/03 10:07:33;;;;;;;3.62;3.33;;;;;;;16.13;40.37;101092.50;1790838;79;37702;-73
2021/10/03 10:10:01;;;;;;;9.00;4.58;;;;;;;16.17;39.83;101096.05;1791372;79;21035;-73
2021/10/03 10:12:28;;;;;;;8.48;4.40;;;;;;;16.22;40.23;101090.69;1813680;78;21331;-74
2021/10/03 10:15:04;;;;;;;6.62;4.58;;;;;;;16.27;40.38;101080.71;1787462;80;21030;-74
2021/10/03 10:17:35;;;;;;;6.40;4.53;;;;;;;16.33;40.31;101086.50;1833730;78;21443;-72
2021/10/03 10:20:27;;;;;;;8.00;4.37;;;;;;;16.40;40.18;101086.31;1796325;78;21014;-73
2021/10/03 10:22:58;;;;;;;8.28;4.83;;;;;;;16.46;40.41;101076.59;1819639;78;20949;-73
2021/10/03 10:25:51;;;;;;;12.20;5.25;;;;;;;16.54;40.14;101077.52;1819568;78;21953;-74
2021/10/03 10:28:32;;;;;;;6.37;4.92;;;;;;;16.60;39.98;101071.61;1812683;77;21044;-73
2021/10/03 10:31:21;;;;;;;8.00;4.65;;;;;;;16.65;39.83;101075.73;1819846;78;21026;-73
2021/10/03 10:34:12;;;;;;;5.12;4.60;;;;;;;16.66;39.13;101073.84;1834017;77;20968;-73
2021/10/03 10:36:51;;;;;;;7.47;4.72;;;;;;;16.63;39.17;101070.29;1819746;78;21052;-73
2021/10/03 10:39:21;;;;;;;5.80;4.53;;;;;;;16.66;38.99;101070.59;1796217;78;21047;-73
2021/10/03 10:41:58;;;;;;;6.80;4.85;;;;;;;16.71;39.05;101066.56;1790984;80;20941;-73
2021/10/03 10:44:32;;;;;;;5.97;4.60;;;;;;;16.81;39.07;101066.67;1787462;78;21012;-74
2021/10/03 10:47:08;;;;;;;7.08;5.92;;;;;;;16.89;38.84;101060.76;1787151;80;21116;-74
2021/10/03 10:49:42;;;;;;;7.95;4.20;;;;;;;16.88;39.02;101059.11;1780816;80;21060;-74
2021/10/03 10:52:22;;;;;;;;;;;;;;;16.96;38.97;101055.94;1782734;79;21839;-74
2021/10/03 10:55:08;;;;;;;5.35;4.80;;;;;;;17.06;39.10;101048.41;1801200;79;20157;-72
2021/10/03 10:58:02;;;;;;;35.55;27.45;;;;;;;17.21;38.52;101055.34;1798550;79;20965;-74
2021/10/03 11:00:30;;;;;;;6.17;4.62;;;;;;;17.35;37.87;101055.70;1781179;79;20988;-74
2021/10/03 11:03:01;;;;;;;5.33;4.15;;;;;;;17.31;37.80;101055.39;1749665;81;21475;-73
2021/10/03 11:05:50;;;;;;;6.85;4.80;;;;;;;17.28;38.16;101049.66;1786316;80;21152;-72
2021/10/03 11:08:18;;;;;;;12.70;5.58;;;;;;;17.32;38.41;101040.71;1760478;80;21544;-73
2021/10/03 11:11:09;;;;;;;5.33;4.83;;;;;;;17.49;37.85;101028.86;1757820;79;21489;-73
2021/10/03 11:13:49;;;;;;;10.95;4.92;;;;;;;17.46;37.42;101038.92;1844475;77;21528;-71
2021/10/03 11:16:29;;;;;;;4.40;3.92;;;;;;;17.44;37.93;101038.64;1850129;77;21544;-70
2021/10/03 11:19:05;;;;;;;6.17;4.62;;;;;;;17.50;37.72;101035.41;1848853;77;21840;-73
2021/10/03 11:21:34;;;;;;;7.53;4.60;;;;;;;17.56;37.58;101037.59;1823956;77;20881;-74
2021/10/03 11:24:03;;;;;;;5.62;4.90;;;;;;;17.62;37.34;101034.69;1823784;77;21007;-72
2021/10/03 11:26:57;;;;;;;6.37;5.00;;;;;;;17.69;37.77;101033.10;1850384;77;20921;-72